Time;durP1;ratioP1;P1;durP2;ratioP2;P2;SDS_P1;SDS_P2;PMS_P1;PMS_P2;Temp;Humidity;BMP_temperature;BMP_pressure;BME280_temperature;BME280_humidity;BME280_pressure;Samples;Min_cycle;Max_cycle;Signal;HPM_P1;HPM_P2
2023/04/11 00:01:31;;;;;;;;;;;;;;;6.37;100.00;100538.16;5567093;32;34148;-69
2023/04/11 00:04:37;;;;;;;;;;;;;;;6.44;100.00;100535.78;5567330;32;33930;-69
2023/04/11 00:07:40;;;;;;;;;;;;;;;6.33;100.00;100528.87;5566927;32;34205;-69
2023/04/11 00:10:43;;;;;;;;;;;;;;;6.40;100.00;100521.22;5553426;32;33948;-69
2023/04/11 00:13:47;;;;;;;;;;;;;;;6.22;100.00;100522.88;5566818;32;34487;-69
2023/04/11 00:16:52;;;;;;;;;;;;;;;6.06;100.00;100518.13;5566721;32;34339;-69
2023/04/11 00:20:06;;;;;;;;;;;;;;;5.99;100.00;100515.22;5553858;32;34650;-69
2023/04/11 00:23:09;;;;;;;;;;;;;;;5.94;100.00;100527.12;5566648;32;34784;-69
2023/04/11 00:26:12;;;;;;;;;;;;;;;5.91;100.00;100522.09;5566587;32;34208;-69
2023/04/11 00:29:14;;;;;;;;;;;;;;;6.10;100.00;100519.53;5566441;32;34749;-69
2023/04/11 00:32:17;;;;;;;;;;;;;;;6.08;100.00;100510.94;5566442;32;34710;-70
2023/04/11 00:35:20;;;;;;;;;;;;;;;6.06;100.00;100503.16;5566260;32;34807;-69
2023/04/11 00:38:22;;;;;;;;;;;;;;;6.03;100.00;100500.81;5566294;32;34679;-69
2023/04/11 00:41:25;;;;;;;;;;;;;;;5.85;100.00;100494.50;5566539;32;34619;-70
2023/04/11 00:44:27;;;;;;;;;;;;;;;5.81;100.00;100502.81;5566100;32;34646;-70
2023/04/11 00:47:31;;;;;;;;;;;;;;;5.88;100.00;100496.06;5566024;32;34138;-69
2023/04/11 00:50:35;;;;;;;;;;;;;;;5.84;100.00;100487.56;5566088;32;34450;-69
2023/04/11 00:53:38;;;;;;;;;;;;;;;5.76;100.00;100497.13;5566396;32;34206;-69
2023/04/11 00:56:40;;;;;;;;;;;;;;;5.74;100.00;100485.88;5566043;32;34248;-69
2023/04/11 00:59:43;;;;;;;;;;;;;;;5.62;100.00;100483.34;5566009;32;34436;-69
2023/04/11 01:02:46;;;;;;;;;;;;;;;5.48;100.00;100493.38;5568929;32;34073;-68
2023/04/11 01:05:51;;;;;;;;;;;;;;;5.35;100.00;100488.37;5569126;32;34243;-69
2023/04/11 01:08:53;;;;;;;;;;;;;;;5.29;100.00;100488.03;5555002;32;34920;-69
2023/04/11 01:11:57;;;;;;;;;;;;;;;5.30;100.00;100487.94;5568869;32;34031;-69
2023/04/11 01:15:00;;;;;;;;;;;;;;;5.25;100.00;100482.22;5568690;32;34230;-69
2023/04/11 01:18:05;;;;;;;;;;;;;;;5.33;100.00;100481.56;5568468;32;34704;-69
2023/04/11 01:21:08;;;;;;;;;;;;;;;5.31;100.00;100471.19;5568724;32;35333;-69
2023/04/11 01:24:11;;;;;;;;;;;;;;;5.29;100.00;100477.53;5568679;32;34639;-69
2023/04/11 01:27:14;;;;;;;;;;;;;;;5.28;100.00;100473.25;5555283;32;34835;-69
2023/04/11 01:30:17;;;;;;;;;;;;;;;5.18;100.00;100471.37;5568909;32;34223;-69
2023/04/11 01:33:21;;;;;;;;;;;;;;;5.05;100.00;100457.63;5555042;32;34229;-69
2023/04/11 01:36:25;;;;;;;;;;;;;;;5.16;100.00;100454.91;5568435;32;34307;-69
2023/04/11 01:39:28;;;;;;;;;;;;;;;5.14;100.00;100456.84;5554752;32;34355;-69
2023/04/11 01:42:31;;;;;;;;;;;;;;;5.05;100.00;100449.75;5568392;32;34296;-69
2023/04/11 01:45:34;;;;;;;;;;;;;;;4.98;100.00;100447.78;5568716;32;33865;-69
2023/04/11 01:48:37;;;;;;;;;;;;;;;4.93;100.00;100448.16;5568204;32;35060;-69
2023/04/11 01:51:41;;;;;;;;;;;;;;;4.90;100.00;100445.78;5568583;32;34862;-69
2023/04/11 01:54:43;;;;;;;;;;;;;;;4.89;100.00;100446.72;5554659;32;32565;-69
2023/04/11 01:57:46;;;;;;;;;;;;;;;4.83;100.00;100444.66;5568340;32;34370;-69
2023/04/11 02:00:49;;;;;;;;;;;;;;;4.75;100.00;100439.19;5568250;32;34762;-69
2023/04/11 02:03:54;;;;;;;;;;;;;;;4.83;100.00;100444.66;5568575;32;34836;-69
2023/04/11 02:06:56;;;;;;;;;;;;;;;4.94;100.00;100434.03;5568275;32;33952;-69
2023/04/11 02:09:59;;;;;;;;;;;;;;;4.87;100.00;100445.22;5568275;32;34683;-69
2023/04/11 02:13:02;;;;;;;;;;;;;;;4.76;100.00;100440.84;5568017;32;33955;-69
2023/04/11 02:16:08;;;;;;;;;;;;;;;4.64;100.00;100437.47;5554751;32;34030;-69
2023/04/11 02:19:11;;;;;;;;;;;;;;;4.72;100.00;100445.53;5554259;32;34194;-69
2023/04/11 02:22:14;;;;;;;;;;;;;;;4.82;100.00;100441.19;5568147;32;35540;-69
2023/04/11 02:25:17;;;;;;;;;;;;;;;4.86;100.00;100433.87;5568529;32;34124;-69
2023/04/11 02:28:19;;;;;;;;;;;;;;;4.76;100.00;100425.94;5568199;32;34399;-69
2023/04/11 02:31:22;;;;;;;;;;;;;;;4.64;100.00;100421.72;5568035;32;34099;-69
2023/04/11 02:34:25;;;;;;;;;;;;;;;4.59;100.00;100416.00;5567998;32;35179;-69
2023/04/11 02:37:29;;;;;;;;;;;;;;;4.59;100.00;100409.91;5554228;32;34849;-69
2023/04/11 02:40:32;;;;;;;;;;;;;;;4.56;100.00;100410.16;5554404;32;34610;-69
2023/04/11 02:43:35;;;;;;;;;;;;;;;4.39;100.00;100411.59;5567775;32;34226;-70
2023/04/11 02:46:37;;;;;;;;;;;;;;;4.27;100.00;100426.56;5567983;32;33860;-69
2023/04/11 02:49:41;;;;;;;;;;;;;;;4.27;100.00;100409.97;5567802;32;34200;-69
2023/04/11 02:52:44;;;;;;;;;;;;;;;4.37;100.00;100411.69;5567918;32;34010;-69
2023/04/11 02:55:50;;;;;;;;;;;;;;;4.41;100.00;100404.38;5568214;32;34248;-69
2023/04/11 02:58:54;;;;;;;;;;;;;;;4.41;100.00;100409.66;5567998;32;34607;-69
2023/04/11 03:01:58;;;;;;;;;;;;;;;4.33;100.00;100398.94;5567821;32;34328;-69
2023/04/11 03:05:04;;;;;;;;;;;;;;;4.32;100.00;100413.87;5567714;32;34242;-69
2023/04/11 03:08:07;;;;;;;;;;;;;;;4.24;100.00;100416.31;5567719;32;33886;-69
2023/04/11 03:11:10;;;;;;;;;;;;;;;4.21;100.00;100415.75;5567753;32;34308;-69
2023/04/11 03:14:14;;;;;;;;;;;;;;;4.15;100.00;100413.59;5568006;32;34571;-69
2023/04/11 03:17:16;;;;;;;;;;;;;;;4.04;100.00;100409.22;5567945;32;34316;-69
2023/04/11 03:20:19;;;;;;;;;;;;;;;4.19;100.00;100404.50;5553807;32;35035;-69
2023/04/11 03:23:22;;;;;;;;;;;;;;;4.30;100.00;100402.69;5566692;32;34340;-69
2023/04/11 03:26:26;;;;;;;;;;;;;;;4.40;100.00;100405.38;5567607;32;34066;-69
2023/04/11 03:29:30;;;;;;;;;;;;;;;4.41;100.00;100398.31;5567762;32;34371;-69
2023/04/11 03:32:35;;;;;;;;;;;;;;;4.66;100.00;100411.88;5567412;32;34878;-68
2023/04/11 03:35:37;;;;;;;;;;;;;;;4.75;100.00;100407.66;5567400;32;34200;-69
2023/04/11 03:38:40;;;;;;;;;;;;;;;4.79;100.00;100402.00;5553533;32;34823;-68
2023/04/11 03:41:42;;;;;;;;;;;;;;;4.63;100.00;100398.19;5553105;32;34846;-69
2023/04/11 03:44:45;;;;;;;;;;;;;;;4.56;100.00;100391.78;5567448;32;33835;-69
2023/04/11 03:47:48;;;;;;;;;;;;;;;4.54;100.00;100394.53;5567189;32;34310;-69
2023/04/11 03:50:52;;;;;;;;;;;;;;;4.56;100.00;100400.47;5567373;32;35403;-69
2023/04/11 03:53:55;;;;;;;;;;;;;;;4.62;100.00;100402.59;5566958;32;34093;-69
2023/04/11 03:56:59;;;;;;;;;;;;;;;4.61;100.00;100407.97;5567339;32;34707;-69
2023/04/11 04:00:05;;;;;;;;;;;;;;;4.62;100.00;100404.41;5567218;32;34149;-69
2023/04/11 04:03:17;;;;;;;;;;;;;;;4.73;100.00;100407.78;5566970;32;34170;-69
2023/04/11 04:06:20;;;;;;;;;;;;;;;4.69;100.00;100409.03;5566783;32;33943;-69
2023/04/11 04:09:24;;;;;;;;;;;;;;;4.72;100.00;100405.28;5566816;32;34070;-69
2023/04/11 04:12:28;;;;;;;;;;;;;;;4.70;100.00;100412.44;5566356;32;34851;-69
2023/04/11 04:15:32;;;;;;;;;;;;;;;4.67;100.00;100400.44;5567075;32;34170;-69
2023/04/11 04:18:36;;;;;;;;;;;;;;;4.67;100.00;100404.84;5566514;32;33970;-69
2023/04/11 04:21:40;;;;;;;;;;;;;;;4.76;100.00;100401.44;5566517;32;35035;-69
2023/04/11 04:24:46;;;;;;;;;;;;;;;4.74;100.00;100406.00;5569221;31;33893;-69
2023/04/11 04:27:52;;;;;;;;;;;;;;;4.69;100.00;100398.50;5566483;32;34298;-69
2023/04/11 04:30:56;;;;;;;;;;;;;;;4.65;100.00;100402.34;5568989;32;34213;-68
2023/04/11 04:34:07;;;;;;;;;;;;;;;4.65;100.00;100394.44;5566105;32;34703;-69
2023/04/11 04:37:20;;;;;;;;;;;;;;;4.73;100.00;100399.91;5568399;32;34339;-69
2023/04/11 04:40:24;;;;;;;;;;;;;;;4.70;100.00;100413.28;5569130;32;33810;-69
2023/04/11 04:43:31;;;;;;;;;;;;;;;4.66;100.00;100409.25;5568942;32;33922;-69
2023/04/11 04:46:35;;;;;;;;;;;;;;;4.74;100.00;100409.44;5568776;32;33670;-70
2023/04/11 04:49:39;;;;;;;;;;;;;;;4.86;100.00;100412.84;5568761;32;34225;-70
2023/04/11 04:52:42;;;;;;;;;;;;;;;5.02;100.00;100409.75;5568802;32;34117;-70
2023/04/11 04:55:47;;;;;;;;;;;;;;;5.13;100.00;100407.03;5568771;32;34630;-70
2023/04/11 04:58:50;;;;;;;;;;;;;;;5.24;100.00;100401.66;5568582;32;34260;-69
2023/04/11 05:01:53;;;;;;;;;;;;;;;5.34;100.00;100401.69;5568560;32;34845;-70
2023/04/11 05:05:03;;;;;;;;;;;;;;;5.50;100.00;100399.37;5576754;31;34382;-69
2023/04/11 05:08:06;;;;;;;;;;;;;;;5.62;100.00;100398.28;5585726;31;34574;-72
2023/04/11 05:11:10;;;;;;;;;;;;;;;5.76;100.00;100395.25;5547382;31;33896;-69
2023/04/11 05:14:14;;;;;;;;;;;;;;;5.95;100.00;100402.41;5588293;31;34142;-70
2023/04/11 05:17:17;;;;;;;;;;;;;;;6.19;100.00;100388.81;5574037;31;35010;-69
2023/04/11 05:20:20;;;;;;;;;;;;;;;6.31;100.00;100396.44;5588158;31;34002;-70
2023/04/11 05:23:23;;;;;;;;;;;;;;;6.44;100.00;100394.31;5587917;31;35030;-70
2023/04/11 05:26:26;;;;;;;;;;;;;;;6.58;100.00;100387.81;5587944;31;34294;-70
2023/04/11 05:29:28;;;;;;;;;;;;;;;6.84;100.00;100380.09;5574944;31;34280;-70
2023/04/11 05:32:34;;;;;;;;;;;;;;;7.21;100.00;100380.91;5567985;32;33929;-70
2023/04/11 05:35:37;;;;;;;;;;;;;;;7.39;100.00;100375.69;5568306;32;34205;-70
2023/04/11 05:38:40;;;;;;;;;;;;;;;7.61;100.00;100383.19;5554185;31;34198;-70
2023/04/11 05:41:42;;;;;;;;;;;;;;;7.72;100.00;100382.16;5567886;32;34175;-69
2023/04/11 05:44:47;;;;;;;;;;;;;;;7.87;100.00;100376.22;5567506;32;34411;-69
2023/04/11 05:47:49;;;;;;;;;;;;;;;8.03;100.00;100372.91;5566477;32;34286;-70
2023/04/11 05:50:55;;;;;;;;;;;;;;;7.94;100.00;100371.12;5567142;32;33954;-71
2023/04/11 05:53:58;;;;;;;;;;;;;;;7.97;100.00;100373.50;5569078;31;34616;-69
2023/04/11 05:57:01;;;;;;;;;;;;;;;8.03;100.00;100366.78;5567605;31;34103;-71
2023/04/11 06:00:15;;;;;;;;;;;;;;;8.14;100.00;100358.59;5567069;32;33966;-70
2023/04/11 06:03:18;;;;;;;;;;;;;;;8.04;100.00;100358.69;5567757;32;34859;-71
2023/04/11 06:06:20;;;;;;;;;;;;;;;8.13;100.00;100363.03;5567904;32;33951;-70
2023/04/11 06:09:23;;;;;;;;;;;;;;;8.49;100.00;100355.94;5568015;32;34324;-70
2023/04/11 06:12:27;;;;;;;;;;;;;;;8.79;100.00;100348.53;5567851;32;34135;-71
2023/04/11 06:15:29;;;;;;;;;;;;;;;8.85;100.00;100351.38;5567593;32;34755;-70
2023/04/11 06:18:32;;;;;;;;;;;;;;;8.53;100.00;100345.87;5567698;32;34059;-70
2023/04/11 06:21:35;;;;;;;;;;;;;;;8.86;100.00;100350.38;5571745;31;34257;-70
2023/04/11 06:24:38;;;;;;;;;;;;;;;9.15;100.00;100350.00;5573401;31;32956;-69
2023/04/11 06:27:44;;;;;;;;;;;;;;;9.33;100.00;100342.81;5578617;31;34650;-70
2023/04/11 06:30:46;;;;;;;;;;;;;;;9.56;100.00;100343.03;5573078;31;33706;-70
2023/04/11 06:33:49;;;;;;;;;;;;;;;9.83;100.00;100348.03;5584117;31;34389;-69
2023/04/11 06:36:52;;;;;;;;;;;;;;;10.04;100.00;100347.56;5587380;31;34501;-69
2023/04/11 06:39:55;;;;;;;;;;;;;;;10.20;100.00;100339.66;5587104;31;34818;-69
2023/04/11 06:42:59;;;;;;;;;;;;;;;10.23;100.00;100336.66;5573315;31;34859;-70
2023/04/11 06:46:02;;;;;;;;;;;;;;;10.71;100.00;100341.06;5571724;31;33718;-70
2023/04/11 06:49:08;;;;;;;;;;;;;;;10.65;100.00;100335.63;5568039;32;34140;-70
2023/04/11 06:52:13;;;;;;;;;;;;;;;11.55;100.00;100332.44;5567391;32;34026;-70
2023/04/11 06:55:16;;;;;;;;;;;;;;;12.38;100.00;100335.16;5567175;32;34327;-70
2023/04/11 06:58:18;;;;;;;;;;;;;;;12.31;100.00;100331.56;5567226;32;34297;-70
2023/04/11 07:01:24;;;;;;;;;;;;;;;12.64;100.00;100332.06;5567701;32;34234;-70
2023/04/11 07:04:27;;;;;;;;;;;;;;;12.99;100.00;100327.84;5567562;31;33344;-71
2023/04/11 07:07:30;;;;;;;;;;;;;;;13.52;100.00;100331.19;5570953;31;34871;-71
2023/04/11 07:10:32;;;;;;;;;;;;;;;14.38;93.83;100332.91;5568390;31;34120;-71
2023/04/11 07:13:35;;;;;;;;;;;;;;;13.94;92.29;100328.59;5566930;31;34224;-71
2023/04/11 07:16:38;;;;;;;;;;;;;;;14.56;92.78;100320.72;5567358;31;33944;-71
2023/04/11 07:19:42;;;;;;;;;;;;;;;15.95;80.94;100314.13;5566961;31;34884;-71
2023/04/11 07:22:44;;;;;;;;;;;;;;;16.74;74.38;100306.09;5567420;32;34068;-71
2023/04/11 07:25:48;;;;;;;;;;;;;;;17.96;67.26;100304.06;5571047;31;34204;-72
2023/04/11 07:28:51;;;;;;;;;;;;;;;18.02;61.72;100311.25;5582527;31;35171;-72
2023/04/11 07:31:54;;;;;;;;;;;;;;;18.48;57.72;100310.06;5581881;31;34753;-72
2023/04/11 07:34:57;;;;;;;;;;;;;;;18.77;57.56;100309.41;5586491;31;34670;-71
2023/04/11 07:38:02;;;;;;;;;;;;;;;18.40;57.98;100303.09;5577912;31;35268;-71
2023/04/11 07:41:05;;;;;;;;;;;;;;;17.46;57.44;100305.00;5566024;31;34228;-71
2023/04/11 07:44:08;;;;;;;;;;;;;;;15.69;65.13;100301.50;5565990;32;34816;-71
2023/04/11 07:47:12;;;;;;;;;;;;;;;14.64;70.56;100299.19;5566872;32;33998;-70
2023/04/11 07:50:14;;;;;;;;;;;;;;;14.98;72.25;100300.22;5566964;32;33893;-71
2023/04/11 07:53:18;;;;;;;;;;;;;;;15.56;67.09;100293.47;5556350;31;34737;-71
2023/04/11 07:56:21;;;;;;;;;;;;;;;16.08;64.80;100301.56;5572160;31;34483;-70
2023/04/11 07:59:23;;;;;;;;;;;;;;;14.79;68.25;100294.56;5571980;31;34770;-71
2023/04/11 08:02:29;;;;;;;;;;;;;;;14.63;69.59;100286.03;5571961;31;34588;-71
2023/04/11 08:05:34;;;;;;;;;;;;;;;14.30;70.63;100280.44;5586385;31;34219;-70
2023/04/11 08:08:36;;;;;;;;;;;;;;;15.10;67.28;100277.25;5584936;31;33865;-70
2023/04/11 08:11:50;;;;;;;;;;;;;;;15.15;66.21;100272.94;5587992;31;34866;-71
2023/04/11 08:14:53;;;;;;;;;;;;;;;14.74;67.30;100280.16;5588685;31;34342;-72
2023/04/11 08:17:56;;;;;;;;;;;;;;;14.66;68.06;100281.16;5588739;31;34050;-72
2023/04/11 08:21:00;;;;;;;;;;;;;;;14.16;71.21;100271.53;5574427;31;33893;-71
2023/04/11 08:24:05;;;;;;;;;;;;;;;14.06;73.27;100268.38;5575391;31;34355;-72
2023/04/11 08:27:12;;;;;;;;;;;;;;;14.12;75.22;100264.94;5588279;31;34633;-73
2023/04/11 08:30:19;;;;;;;;;;;;;;;14.58;77.42;100251.91;5574840;31;34750;-72
2023/04/11 08:33:22;;;;;;;;;;;;;;;15.13;68.95;100250.13;5568904;31;34109;-69
2023/04/11 08:36:26;;;;;;;;;;;;;;;14.37;70.25;100238.66;5568084;31;34050;-70
2023/04/11 08:39:28;;;;;;;;;;;;;;;13.68;76.41;100235.84;5574024;31;33631;-70
2023/04/11 08:42:32;;;;;;;;;;;;;;;14.34;75.50;100233.66;5588363;31;34069;-71
2023/04/11 08:45:34;;;;;;;;;;;;;;;15.54;67.23;100220.66;5571683;31;34248;-69
2023/04/11 08:48:37;;;;;;;;;;;;;;;14.53;68.96;100205.47;5576147;31;34773;-70
2023/04/11 08:51:41;;;;;;;;;;;;;;;14.51;69.74;100197.69;5588296;31;34715;-70
2023/04/11 08:54:44;;;;;;;;;;;;;;;15.07;67.70;100197.50;5588067;31;35144;-71
2023/04/11 08:57:46;;;;;;;;;;;;;;;15.60;64.03;100198.44;5588107;31;34327;-70
2023/04/11 09:00:49;;;;;;;;;;;;;;;16.14;61.86;100195.53;5587805;31;34183;-70
2023/04/11 09:03:53;;;;;;;;;;;;;;;15.68;62.63;100187.56;5588170;31;34772;-69
2023/04/11 09:06:57;;;;;;;;;;;;;;;15.25;62.86;100184.38;5588411;31;34189;-70
2023/04/11 09:10:19;;;;;;;;;;;;;;;15.41;64.07;100183.16;5578455;31;34686;-69
2023/04/11 09:13:25;;;;;;;;;;;;;;;15.15;65.26;100183.97;5568692;32;34511;-70
2023/04/11 09:16:28;;;;;;;;;;;;;;;14.79;66.06;100192.25;5554102;32;34371;-70
2023/04/11 09:19:32;;;;;;;;;;;;;;;14.43;68.07;100187.16;5574788;31;34796;-70
2023/04/11 09:22:35;;;;;;;;;;;;;;;14.57;68.77;100185.41;5556390;32;33927;-70
2023/04/11 09:25:44;;;;;;;;;;;;;;;15.26;66.87;100182.53;5554627;32;34192;-70
2023/04/11 09:28:53;;;;;;;;;;;;;;;14.53;70.79;100171.59;5572216;31;34917;-71
2023/04/11 09:31:56;;;;;;;;;;;;;;;14.75;70.45;100166.97;5588094;31;34019;-69
2023/04/11 09:35:12;;;;;;;;;;;;;;;14.85;68.91;100153.25;5574326;31;33967;-70
2023/04/11 09:38:26;;;;;;;;;;;;;;;14.37;71.52;100147.09;5586984;31;33906;-69
2023/04/11 09:41:30;;;;;;;;;;;;;;;14.77;72.99;100138.22;5587564;31;34365;-70
2023/04/11 09:44:35;;;;;;;;;;;;;;;15.69;66.58;100141.03;5587498;31;34175;-70
2023/04/11 09:47:37;;;;;;;;;;;;;;;14.98;69.99;100142.59;5587776;31;34183;-72
2023/04/11 09:50:40;;;;;;;;;;;;;;;15.23;70.69;100141.00;5588071;31;34622;-72
2023/04/11 09:53:43;;;;;;;;;;;;;;;15.62;67.69;100137.56;5587952;31;34045;-72
2023/04/11 09:56:46;;;;;;;;;;;;;;;15.47;68.65;100137.75;5573979;31;34290;-70
2023/04/11 09:59:52;;;;;;;;;;;;;;;15.04;69.96;100134.59;5587370;31;34349;-72
2023/04/11 10:02:56;;;;;;;;;;;;;;;15.44;69.43;100122.09;5561199;31;33865;-70
2023/04/11 10:06:01;;;;;;;;;;;;;;;15.48;67.62;100136.72;5587549;31;34412;-68
2023/04/11 10:09:08;;;;;;;;;;;;;;;15.46;63.78;100124.56;5573840;31;34623;-69
2023/04/11 10:12:11;;;;;;;;;;;;;;;15.65;62.92;100121.09;5587737;31;33970;-72
2023/04/11 10:15:14;;;;;;;;;;;;;;;15.63;63.21;100109.81;5587623;31;33878;-70
2023/04/11 10:18:17;;;;;;;;;;;;;;;15.70;61.99;100107.94;5587878;31;34942;-73
2023/04/11 10:21:39;;;;;;;;;;;;;;;15.73;63.35;100107.53;5587322;31;34309;-69
2023/04/11 10:25:02;;;;;;;;;;;;;;;15.36;64.99;100103.59;5587276;31;34486;-69
2023/04/11 10:28:05;;;;;;;;;;;;;;;15.61;67.12;100098.47;5587500;31;34095;-70
2023/04/11 10:31:11;;;;;;;;;;;;;;;15.82;64.82;100084.06;5587311;31;34129;-70
2023/04/11 10:34:14;;;;;;;;;;;;;;;15.51;65.06;100076.69;5586920;31;33779;-71
2023/04/11 10:37:18;;;;;;;;;;;;;;;16.15;62.63;100071.41;5587363;31;33802;-71
2023/04/11 10:40:22;;;;;;;;;;;;;;;15.84;64.36;100060.56;5587044;31;34701;-70
2023/04/11 10:43:25;;;;;;;;;;;;;;;17.01;57.68;100060.25;5587409;31;34557;-71
2023/04/11 10:46:28;;;;;;;;;;;;;;;17.37;56.27;100055.84;5586947;31;34744;-70
2023/04/11 10:49:38;;;;;;;;;;;;;;;19.69;50.18;100057.16;5587275;31;34219;-69
2023/04/11 10:52:41;;;;;;;;;;;;;;;19.34;49.89;100052.56;5586985;31;34505;-73
2023/04/11 10:55:48;;;;;;;;;;;;;;;22.17;45.54;100042.72;5587213;31;34736;-69
2023/04/11 10:58:52;;;;;;;;;;;;;;;24.54;38.85;100050.00;5587339;31;34313;-71
2023/04/11 11:02:00;;;;;;;;;;;;;;;22.37;40.65;100042.94;5573061;31;34868;-70
2023/04/11 11:05:13;;;;;;;;;;;;;;;22.88;39.44;100031.62;5586998;31;34034;-70
2023/04/11 11:08:25;;;;;;;;;;;;;;;24.43;37.69;100025.81;5567446;31;32992;-72
2023/04/11 11:11:28;;;;;;;;;;;;;;;26.11;35.06;100022.75;5567554;31;34341;-71
2023/04/11 11:14:31;;;;;;;;;;;;;;;22.16;40.81;100017.59;5567325;32;34373;-71
2023/04/11 11:17:34;;;;;;;;;;;;;;;24.43;35.52;100020.41;5567013;32;34143;-71
2023/04/11 11:20:38;;;;;;;;;;;;;;;21.92;37.53;100005.38;5567045;32;34810;-70
2023/04/11 11:23:54;;;;;;;;;;;;;;;24.58;34.75;99996.03;5567126;32;34750;-71
2023/04/11 11:26:57;;;;;;;;;;;;;;;22.48;37.86;99994.16;5567256;32;35716;-71
2023/04/11 11:30:10;;;;;;;;;;;;;;;25.27;33.46;100001.75;5566812;32;33977;-71
2023/04/11 11:33:16;;;;;;;;;;;;;;;26.46;31.70;99985.63;5566561;32;34307;-71
2023/04/11 11:36:19;;;;;;;;;;;;;;;27.38;29.70;99984.63;5566748;32;34073;-71
2023/04/11 11:39:22;;;;;;;;;;;;;;;27.51;28.95;99980.44;5566944;32;34282;-71
2023/04/11 11:42:27;;;;;;;;;;;;;;;26.80;29.71;99976.41;5558623;32;34080;-71
2023/04/11 11:45:32;;;;;;;;;;;;;;;25.77;31.52;99987.28;5565820;32;34223;-72
2023/04/11 11:48:34;;;;;;;;;;;;;;;24.36;33.11;99990.00;5567049;32;34253;-72
2023/04/11 11:51:41;;;;;;;;;;;;;;;22.49;36.27;99974.16;5567085;32;33969;-69
2023/04/11 11:54:45;;;;;;;;;;;;;;;22.23;36.27;99966.03;5567006;32;34835;-71
2023/04/11 11:57:49;;;;;;;;;;;;;;;23.79;34.16;99970.00;5566866;32;33638;-71
2023/04/11 12:00:51;;;;;;;;;;;;;;;25.47;31.84;99966.44;5566577;32;34801;-70
2023/04/11 12:03:54;;;;;;;;;;;;;;;24.08;31.89;99958.72;5567883;31;34864;-70
2023/04/11 12:07:06;;;;;;;;;;;;;;;25.16;31.05;99964.88;5569502;31;34202;-71
2023/04/11 12:10:12;;;;;;;;;;;;;;;22.78;34.56;99965.78;5565794;32;34168;-70
2023/04/11 12:13:19;;;;;;;;;;;;;;;20.91;37.97;99955.31;5566403;32;34406;-70
2023/04/11 12:16:22;;;;;;;;;;;;;;;20.89;38.41;99944.75;5566681;32;34088;-70
2023/04/11 12:19:26;;;;;;;;;;;;;;;20.62;38.90;99949.16;5566819;31;34177;-70
2023/04/11 12:22:28;;;;;;;;;;;;;;;21.41;36.34;99949.88;5566179;32;34590;-70
2023/04/11 12:25:31;;;;;;;;;;;;;;;22.16;34.81;99951.91;5566646;32;35157;-69
2023/04/11 12:28:34;;;;;;;;;;;;;;;23.87;32.53;99955.13;5566325;32;34514;-69
2023/04/11 12:31:36;;;;;;;;;;;;;;;25.32;30.05;99957.53;5566476;32;34286;-71
2023/04/11 12:34:39;;;;;;;;;;;;;;;25.21;29.39;99961.34;5564612;32;35019;-70
2023/04/11 12:37:43;;;;;;;;;;;;;;;27.11;28.04;99951.69;5565992;31;34172;-70
2023/04/11 12:40:45;;;;;;;;;;;;;;;26.69;27.62;99949.53;5565157;32;34028;-69
2023/04/11 12:43:48;;;;;;;;;;;;;;;24.04;31.22;99949.50;5565846;32;34007;-71
2023/04/11 12:46:50;;;;;;;;;;;;;;;25.87;29.08;99930.19;5566040;32;35414;-69
2023/04/11 12:49:57;;;;;;;;;;;;;;;26.04;28.52;99937.19;5565419;32;34445;-70
2023/04/11 12:53:00;;;;;;;;;;;;;;;23.49;32.42;99929.22;5565523;32;34243;-71
2023/04/11 12:56:03;;;;;;;;;;;;;;;20.97;36.93;99925.47;5565466;32;33874;-70
2023/04/11 12:59:05;;;;;;;;;;;;;;;21.04;37.04;99919.91;5568796;32;34024;-69
2023/04/11 13:02:08;;;;;;;;;;;;;;;19.52;39.36;99914.44;5568528;31;33954;-69
2023/04/11 13:05:12;;;;;;;;;;;;;;;19.02;39.46;99914.12;5573131;31;34746;-69
2023/04/11 13:08:15;;;;;;;;;;;;;;;18.31;41.07;99901.59;5571558;31;34653;-70
2023/04/11 13:11:18;;;;;;;;;;;;;;;18.10;41.09;99886.03;5577296;31;34752;-71
2023/04/11 13:14:21;;;;;;;;;;;;;;;18.16;41.38;99890.44;5571217;31;34830;-69
2023/04/11 13:17:23;;;;;;;;;;;;;;;18.40;40.07;99881.41;5587975;31;34158;-69
2023/04/11 13:20:26;;;;;;;;;;;;;;;18.60;40.19;99875.75;5588178;31;34397;-69
2023/04/11 13:23:28;;;;;;;;;;;;;;;17.76;41.93;99872.25;5573863;31;34132;-69
2023/04/11 13:26:32;;;;;;;;;;;;;;;18.03;42.04;99870.00;5574042;31;34010;-69
2023/04/11 13:29:34;;;;;;;;;;;;;;;17.69;43.26;99873.34;5587792;31;34138;-69
2023/04/11 13:32:37;;;;;;;;;;;;;;;18.08;42.07;99863.94;5587991;31;34919;-70
2023/04/11 13:35:40;;;;;;;;;;;;;;;18.55;43.18;99860.34;5583871;31;34760;-69
2023/04/11 13:38:43;;;;;;;;;;;;;;;18.66;41.28;99859.53;5587808;31;34872;-69
2023/04/11 13:41:46;;;;;;;;;;;;;;;18.87;40.22;99858.13;5587332;31;34900;-69
2023/04/11 13:44:49;;;;;;;;;;;;;;;18.71;40.39;99842.72;5587365;31;34853;-69
2023/04/11 13:47:51;;;;;;;;;;;;;;;18.18;41.72;99846.25;5587472;31;34431;-70
2023/04/11 13:50:56;;;;;;;;;;;;;;;17.98;41.52;99839.53;5573854;31;34657;-69
2023/04/11 13:54:00;;;;;;;;;;;;;;;17.29;42.59;99844.31;5573065;31;34868;-69
2023/04/11 13:57:06;;;;;;;;;;;;;;;17.36;42.12;99836.19;5574859;31;34549;-69
2023/04/11 14:00:12;;;;;;;;;;;;;;;17.64;43.98;99841.84;5571222;31;35027;-70
2023/04/11 14:03:15;;;;;;;;;;;;;;;17.63;42.29;99834.00;5575413;31;34225;-69
2023/04/11 14:06:18;;;;;;;;;;;;;;;17.77;41.89;99844.34;5557562;31;34305;-70
2023/04/11 14:09:21;;;;;;;;;;;;;;;17.33;40.12;99837.44;5566728;31;34169;-70
2023/04/11 14:12:23;;;;;;;;;;;;;;;17.19;40.81;99827.09;5576434;31;34897;-68
2023/04/11 14:15:25;;;;;;;;;;;;;;;17.18;39.96;99828.19;5567890;32;34066;-70
2023/04/11 14:18:28;;;;;;;;;;;;;;;17.05;41.57;99830.97;5568389;31;33946;-68
2023/04/11 14:21:31;;;;;;;;;;;;;;;16.94;40.40;99841.41;5567572;32;34579;-68
2023/04/11 14:24:33;;;;;;;;;;;;;;;16.94;41.04;99841.41;5552993;31;34217;-68
2023/04/11 14:27:36;;;;;;;;;;;;;;;17.03;42.06;99851.84;5567121;32;33961;-68
2023/04/11 14:30:40;;;;;;;;;;;;;;;16.70;42.79;99850.28;5571960;31;33993;-70
2023/04/11 14:33:43;;;;;;;;;;;;;;;16.55;44.41;99859.69;5567488;31;33964;-68
2023/04/11 14:36:45;;;;;;;;;;;;;;;16.33;45.53;99862.72;5570396;31;34699;-69
2023/04/11 14:39:48;;;;;;;;;;;;;;;16.03;46.76;99875.91;5582077;31;34156;-71
2023/04/11 14:42:55;;;;;;;;;;;;;;;15.87;47.83;99878.28;5560187;31;34151;-70
2023/04/11 14:45:57;;;;;;;;;;;;;;;15.60;49.10;99865.03;5574181;31;34360;-71
2023/04/11 14:49:00;;;;;;;;;;;;;;;15.52;50.33;99880.50;5574721;31;34764;-69
2023/04/11 14:52:03;;;;;;;;;;;;;;;15.39;51.33;99881.34;5574654;31;34159;-71
2023/04/11 14:55:06;;;;;;;;;;;;;;;15.14;53.00;99883.06;5562175;31;34898;-71
2023/04/11 14:58:09;;;;;;;;;;;;;;;14.90;54.10;99883.72;5567459;31;34987;-71
2023/04/11 15:01:12;;;;;;;;;;;;;;;14.68;56.17;99885.78;5566604;31;34087;-69
2023/04/11 15:04:15;;;;;;;;;;;;;;;14.70;57.79;99886.41;5579102;31;34709;-70
2023/04/11 15:07:17;;;;;;;;;;;;;;;14.55;59.36;99894.63;5586867;31;35045;-73
2023/04/11 15:10:21;;;;;;;;;;;;;;;14.40;61.82;99887.81;5586202;31;34216;-69
2023/04/11 15:13:25;;;;;;;;;;;;;;;13.88;66.61;99892.84;5586852;31;34612;-71
2023/04/11 15:16:28;;;;;;;;;;;;;;;13.66;71.01;99896.66;5570962;31;33438;-71
2023/04/11 15:19:31;;;;;;;;;;;;;;;13.49;75.10;99904.19;5566704;32;34237;-68
2023/04/11 15:22:36;;;;;;;;;;;;;;;13.26;81.05;99893.00;5567320;32;34196;-68
2023/04/11 15:25:41;;;;;;;;;;;;;;;12.88;89.02;99910.31;5567304;32;34385;-67
2023/04/11 15:28:43;;;;;;;;;;;;;;;12.60;97.75;99920.97;5568008;31;34584;-72
2023/04/11 15:31:47;;;;;;;;;;;;;;;12.29;100.00;99920.47;5567516;32;34169;-70
2023/04/11 15:34:50;;;;;;;;;;;;;;;12.08;100.00;99927.44;5574963;31;34667;-69
2023/04/11 15:37:53;;;;;;;;;;;;;;;11.75;100.00;99928.91;5566765;32;34794;-69
2023/04/11 15:40:57;;;;;;;;;;;;;;;11.21;100.00;99923.03;5566747;32;34109;-70
2023/04/11 15:44:00;;;;;;;;;;;;;;;10.87;100.00;99924.37;5565822;31;34861;-70
2023/04/11 15:47:02;;;;;;;;;;;;;;;10.50;100.00;99939.47;5566755;32;34165;-71